Weather at Amsterdam Airport

Public forecast

Using degrees Celsius for public forecast. Weather courtesy of forecast.io.

Closest aviation weather report (METAR) to Amsterdam Airport

Report is more than 6 hours old.

Closest report is Ermelo Airport, 34.3 nm (63.6 km) WNW. Retrieved 2020/09/24 07:49 UTC (14 hours ago):

FAEO 240749Z 28004KT CAVOK 21/07 Q1027

Closest aviation forecast (TAF) to Amsterdam Airport

Forecast is more than 12 hours old.

Closest forecast is Ermelo Airport, 34.3 nm (63.6 km) WNW. Retrieved 2017/06/05 04:55 UTC (3 years ago):

TAF FAEO 050300Z 0504/0515 09006KT CAVOK TX18/0513ZTN05/0504Z